sensor_id;sensor_type;location;lat;lon;timestamp;P1;durP1;ratioP1;P2;durP2;ratioP2
23728;SDS011;12045;60.214;24.724;2022-09-09T00:04:00;5.25;;;4.03;;
23728;SDS011;12045;60.214;24.724;2022-09-09T00:07:00;5.90;;;4.07;;
23728;SDS011;12045;60.214;24.724;2022-09-09T00:09:43;6.13;;;4.32;;
23728;SDS011;12045;60.214;24.724;2022-09-09T00:12:22;4.35;;;3.75;;
23728;SDS011;12045;60.214;24.724;2022-09-09T00:15:14;5.68;;;3.97;;
23728;SDS011;12045;60.214;24.724;2022-09-09T00:20:49;4.13;;;3.58;;
23728;SDS011;12045;60.214;24.724;2022-09-09T00:23:30;4.13;;;3.33;;
23728;SDS011;12045;60.214;24.724;2022-09-09T00:31:39;5.88;;;3.63;;
23728;SDS011;12045;60.214;24.724;2022-09-09T00:36:46;3.30;;;2.83;;
23728;SDS011;12045;60.214;24.724;2022-09-09T00:39:25;4.50;;;3.10;;
23728;SDS011;12045;60.214;24.724;2022-09-09T00:42:16;3.17;;;2.88;;
23728;SDS011;12045;60.214;24.724;2022-09-09T00:44:52;4.10;;;3.17;;
23728;SDS011;12045;60.214;24.724;2022-09-09T00:47:50;2.85;;;2.58;;
23728;SDS011;12045;60.214;24.724;2022-09-09T00:53:57;3.85;;;2.42;;
23728;SDS011;12045;60.214;24.724;2022-09-09T00:56:35;3.30;;;2.25;;
23728;SDS011;12045;60.214;24.724;2022-09-09T01:01:37;3.17;;;2.75;;
23728;SDS011;12045;60.214;24.724;2022-09-09T01:04:10;7.38;;;3.20;;
23728;SDS011;12045;60.214;24.724;2022-09-09T01:06:43;4.28;;;3.20;;
23728;SDS011;12045;60.214;24.724;2022-09-09T01:14:38;4.55;;;3.17;;
23728;SDS011;12045;60.214;24.724;2022-09-09T01:22:19;4.40;;;3.22;;
23728;SDS011;12045;60.214;24.724;2022-09-09T01:27:32;3.72;;;2.80;;
23728;SDS011;12045;60.214;24.724;2022-09-09T01:30:02;3.40;;;2.30;;
23728;SDS011;12045;60.214;24.724;2022-09-09T01:35:10;3.15;;;2.20;;
23728;SDS011;12045;60.214;24.724;2022-09-09T01:37:54;2.30;;;1.80;;
23728;SDS011;12045;60.214;24.724;2022-09-09T01:40:21;1.58;;;1.40;;
23728;SDS011;12045;60.214;24.724;2022-09-09T01:42:49;3.75;;;1.98;;
23728;SDS011;12045;60.214;24.724;2022-09-09T01:45:17;1.95;;;1.40;;
23728;SDS011;12045;60.214;24.724;2022-09-09T01:47:44;1.88;;;1.60;;
23728;SDS011;12045;60.214;24.724;2022-09-09T01:50:13;2.22;;;1.63;;
23728;SDS011;12045;60.214;24.724;2022-09-09T01:52:43;1.60;;;1.50;;
23728;SDS011;12045;60.214;24.724;2022-09-09T01:55:14;2.28;;;1.00;;
23728;SDS011;12045;60.214;24.724;2022-09-09T01:57:53;2.28;;;1.20;;
23728;SDS011;12045;60.214;24.724;2022-09-09T02:00:31;1.20;;;1.10;;
23728;SDS011;12045;60.214;24.724;2022-09-09T02:05:41;1.98;;;1.00;;
23728;SDS011;12045;60.214;24.724;2022-09-09T02:11:19;1.33;;;1.23;;
23728;SDS011;12045;60.214;24.724;2022-09-09T02:13:52;1.40;;;1.08;;
23728;SDS011;12045;60.214;24.724;2022-09-09T02:16:26;2.00;;;0.80;;
23728;SDS011;12045;60.214;24.724;2022-09-09T02:19:12;1.52;;;0.80;;
23728;SDS011;12045;60.214;24.724;2022-09-09T02:21:48;1.38;;;1.20;;
23728;SDS011;12045;60.214;24.724;2022-09-09T02:24:16;2.78;;;1.70;;
23728;SDS011;12045;60.214;24.724;2022-09-09T02:26:44;2.30;;;1.13;;
23728;SDS011;12045;60.214;24.724;2022-09-09T02:29:16;1.23;;;0.98;;
23728;SDS011;12045;60.214;24.724;2022-09-09T02:31:47;1.17;;;1.00;;
23728;SDS011;12045;60.214;24.724;2022-09-09T02:34:17;1.10;;;1.00;;
23728;SDS011;12045;60.214;24.724;2022-09-09T02:36:47;2.78;;;1.10;;
23728;SDS011;12045;60.214;24.724;2022-09-09T02:39:17;0.98;;;0.80;;
23728;SDS011;12045;60.214;24.724;2022-09-09T02:41:45;0.88;;;0.70;;
23728;SDS011;12045;60.214;24.724;2022-09-09T02:44:14;0.80;;;0.80;;
23728;SDS011;12045;60.214;24.724;2022-09-09T02:52:28;0.95;;;0.88;;
23728;SDS011;12045;60.214;24.724;2022-09-09T02:55:07;1.25;;;1.13;;
23728;SDS011;12045;60.214;24.724;2022-09-09T02:57:45;1.83;;;1.40;;
23728;SDS011;12045;60.214;24.724;2022-09-09T03:00:14;2.08;;;1.58;;
23728;SDS011;12045;60.214;24.724;2022-09-09T03:02:41;2.75;;;1.30;;
23728;SDS011;12045;60.214;24.724;2022-09-09T03:05:09;2.00;;;1.20;;
23728;SDS011;12045;60.214;24.724;2022-09-09T03:07:36;1.55;;;1.20;;
23728;SDS011;12045;60.214;24.724;2022-09-09T03:10:06;2.95;;;2.20;;
23728;SDS011;12045;60.214;24.724;2022-09-09T03:12:34;2.25;;;1.98;;
23728;SDS011;12045;60.214;24.724;2022-09-09T03:15:02;1.90;;;1.70;;
23728;SDS011;12045;60.214;24.724;2022-09-09T03:17:30;1.92;;;1.50;;
23728;SDS011;12045;60.214;24.724;2022-09-09T03:19:57;3.78;;;2.20;;
23728;SDS011;12045;60.214;24.724;2022-09-09T03:22:25;2.47;;;2.10;;
23728;SDS011;12045;60.214;24.724;2022-09-09T03:24:53;3.90;;;2.55;;
23728;SDS011;12045;60.214;24.724;2022-09-09T03:27:21;3.25;;;1.80;;
23728;SDS011;12045;60.214;24.724;2022-09-09T03:29:48;3.20;;;2.47;;
23728;SDS011;12045;60.214;24.724;2022-09-09T03:32:18;1.98;;;1.80;;
23728;SDS011;12045;60.214;24.724;2022-09-09T03:34:49;4.05;;;2.60;;
23728;SDS011;12045;60.214;24.724;2022-09-09T03:37:17;3.45;;;2.67;;
23728;SDS011;12045;60.214;24.724;2022-09-09T03:39:44;3.15;;;2.20;;
23728;SDS011;12045;60.214;24.724;2022-09-09T03:42:12;2.80;;;1.98;;
23728;SDS011;12045;60.214;24.724;2022-09-09T03:44:41;2.63;;;1.88;;
23728;SDS011;12045;60.214;24.724;2022-09-09T03:47:08;3.17;;;1.85;;
23728;SDS011;12045;60.214;24.724;2022-09-09T03:49:36;2.05;;;1.88;;
23728;SDS011;12045;60.214;24.724;2022-09-09T03:52:03;2.15;;;1.75;;
23728;SDS011;12045;60.214;24.724;2022-09-09T03:54:31;1.73;;;1.60;;
23728;SDS011;12045;60.214;24.724;2022-09-09T03:56:58;2.05;;;1.70;;
23728;SDS011;12045;60.214;24.724;2022-09-09T03:59:25;8.65;;;2.65;;
23728;SDS011;12045;60.214;24.724;2022-09-09T04:01:54;2.53;;;2.25;;
23728;SDS011;12045;60.214;24.724;2022-09-09T04:04:26;3.90;;;2.85;;
23728;SDS011;12045;60.214;24.724;2022-09-09T04:06:53;4.32;;;2.85;;
23728;SDS011;12045;60.214;24.724;2022-09-09T04:09:21;6.97;;;3.22;;
23728;SDS011;12045;60.214;24.724;2022-09-09T04:11:49;5.25;;;3.20;;
23728;SDS011;12045;60.214;24.724;2022-09-09T04:14:16;3.20;;;2.83;;
23728;SDS011;12045;60.214;24.724;2022-09-09T04:16:44;5.22;;;3.20;;
23728;SDS011;12045;60.214;24.724;2022-09-09T04:19:13;5.22;;;3.20;;
23728;SDS011;12045;60.214;24.724;2022-09-09T04:21:41;3.97;;;3.10;;
23728;SDS011;12045;60.214;24.724;2022-09-09T04:24:08;4.47;;;2.92;;
23728;SDS011;12045;60.214;24.724;2022-09-09T04:26:36;4.22;;;3.15;;
23728;SDS011;12045;60.214;24.724;2022-09-09T04:29:04;4.47;;;3.08;;
23728;SDS011;12045;60.214;24.724;2022-09-09T04:31:34;4.28;;;2.97;;
23728;SDS011;12045;60.214;24.724;2022-09-09T04:34:02;4.60;;;3.08;;
23728;SDS011;12045;60.214;24.724;2022-09-09T04:36:32;4.50;;;3.45;;
23728;SDS011;12045;60.214;24.724;2022-09-09T04:38:59;4.43;;;3.55;;
23728;SDS011;12045;60.214;24.724;2022-09-09T04:41:27;5.13;;;2.47;;
23728;SDS011;12045;60.214;24.724;2022-09-09T04:43:55;4.07;;;3.05;;
23728;SDS011;12045;60.214;24.724;2022-09-09T04:46:23;3.55;;;2.92;;
23728;SDS011;12045;60.214;24.724;2022-09-09T04:48:51;3.30;;;2.63;;
23728;SDS011;12045;60.214;24.724;2022-09-09T04:51:19;3.67;;;2.70;;
23728;SDS011;12045;60.214;24.724;2022-09-09T04:53:46;3.75;;;2.80;;
23728;SDS011;12045;60.214;24.724;2022-09-09T04:56:15;3.50;;;2.42;;
23728;SDS011;12045;60.214;24.724;2022-09-09T04:58:44;2.95;;;2.60;;
23728;SDS011;12045;60.214;24.724;2022-09-09T05:01:19;3.70;;;3.40;;
23728;SDS011;12045;60.214;24.724;2022-09-09T05:03:51;3.78;;;2.72;;
23728;SDS011;12045;60.214;24.724;2022-09-09T05:06:21;2.58;;;2.15;;
23728;SDS011;12045;60.214;24.724;2022-09-09T05:08:50;2.22;;;2.00;;
23728;SDS011;12045;60.214;24.724;2022-09-09T05:11:22;1.90;;;1.80;;
23728;SDS011;12045;60.214;24.724;2022-09-09T05:13:56;6.28;;;1.70;;
23728;SDS011;12045;60.214;24.724;2022-09-09T05:16:24;4.55;;;2.00;;
23728;SDS011;12045;60.214;24.724;2022-09-09T05:18:53;13.65;;;2.88;;
23728;SDS011;12045;60.214;24.724;2022-09-09T05:21:23;3.72;;;2.15;;
23728;SDS011;12045;60.214;24.724;2022-09-09T05:23:58;3.53;;;2.13;;
23728;SDS011;12045;60.214;24.724;2022-09-09T05:26:28;5.78;;;2.67;;
23728;SDS011;12045;60.214;24.724;2022-09-09T05:29:02;3.90;;;1.90;;
23728;SDS011;12045;60.214;24.724;2022-09-09T05:31:30;4.47;;;2.10;;
23728;SDS011;12045;60.214;24.724;2022-09-09T05:33:58;4.38;;;2.33;;
23728;SDS011;12045;60.214;24.724;2022-09-09T05:36:27;3.13;;;1.95;;
23728;SDS011;12045;60.214;24.724;2022-09-09T05:38:54;6.88;;;1.98;;
23728;SDS011;12045;60.214;24.724;2022-09-09T05:41:23;3.45;;;1.80;;
23728;SDS011;12045;60.214;24.724;2022-09-09T05:43:59;3.55;;;1.70;;
23728;SDS011;12045;60.214;24.724;2022-09-09T05:46:27;3.95;;;1.70;;
23728;SDS011;12045;60.214;24.724;2022-09-09T05:48:55;4.32;;;1.90;;
23728;SDS011;12045;60.214;24.724;2022-09-09T05:51:26;2.85;;;1.63;;
23728;SDS011;12045;60.214;24.724;2022-09-09T05:53:57;3.95;;;1.77;;
23728;SDS011;12045;60.214;24.724;2022-09-09T05:56:29;3.40;;;1.80;;
23728;SDS011;12045;60.214;24.724;2022-09-09T05:58:59;6.43;;;1.80;;
23728;SDS011;12045;60.214;24.724;2022-09-09T06:01:29;3.55;;;1.90;;
23728;SDS011;12045;60.214;24.724;2022-09-09T06:04:38;3.00;;;1.70;;
23728;SDS011;12045;60.214;24.724;2022-09-09T06:07:06;4.03;;;1.40;;
23728;SDS011;12045;60.214;24.724;2022-09-09T06:10:29;3.20;;;1.58;;
23728;SDS011;12045;60.214;24.724;2022-09-09T06:12:59;4.78;;;1.63;;
23728;SDS011;12045;60.214;24.724;2022-09-09T06:15:49;6.40;;;1.85;;
23728;SDS011;12045;60.214;24.724;2022-09-09T06:18:18;7.57;;;1.30;;
23728;SDS011;12045;60.214;24.724;2022-09-09T06:20:54;2.03;;;1.25;;
23728;SDS011;12045;60.214;24.724;2022-09-09T06:23:27;1.55;;;1.45;;
23728;SDS011;12045;60.214;24.724;2022-09-09T06:26:09;1.85;;;0.98;;
23728;SDS011;12045;60.214;24.724;2022-09-09T06:28:40;2.90;;;1.05;;
23728;SDS011;12045;60.214;24.724;2022-09-09T06:31:10;1.63;;;0.90;;
23728;SDS011;12045;60.214;24.724;2022-09-09T06:33:40;1.90;;;1.00;;
23728;SDS011;12045;60.214;24.724;2022-09-09T06:36:10;1.63;;;1.10;;
23728;SDS011;12045;60.214;24.724;2022-09-09T06:38:40;2.03;;;1.08;;
23728;SDS011;12045;60.214;24.724;2022-09-09T06:41:10;1.45;;;1.13;;
23728;SDS011;12045;60.214;24.724;2022-09-09T06:43:40;1.67;;;0.98;;
23728;SDS011;12045;60.214;24.724;2022-09-09T06:46:10;1.88;;;0.88;;
23728;SDS011;12045;60.214;24.724;2022-09-09T06:48:41;2.25;;;1.00;;
23728;SDS011;12045;60.214;24.724;2022-09-09T06:51:16;1.67;;;1.10;;
23728;SDS011;12045;60.214;24.724;2022-09-09T06:59:14;2.03;;;1.30;;
23728;SDS011;12045;60.214;24.724;2022-09-09T07:01:44;2.78;;;1.15;;
23728;SDS011;12045;60.214;24.724;2022-09-09T07:13:04;5.07;;;1.00;;
23728;SDS011;12045;60.214;24.724;2022-09-09T07:15:35;2.03;;;1.10;;
23728;SDS011;12045;60.214;24.724;2022-09-09T07:26:15;1.33;;;1.15;;
23728;SDS011;12045;60.214;24.724;2022-09-09T07:28:46;1.33;;;1.10;;
23728;SDS011;12045;60.214;24.724;2022-09-09T07:31:16;1.10;;;1.00;;
23728;SDS011;12045;60.214;24.724;2022-09-09T07:39:20;1.05;;;0.90;;
23728;SDS011;12045;60.214;24.724;2022-09-09T07:41:59;1.00;;;0.90;;
23728;SDS011;12045;60.214;24.724;2022-09-09T07:44:27;1.42;;;1.00;;
23728;SDS011;12045;60.214;24.724;2022-09-09T07:46:56;1.27;;;1.10;;
23728;SDS011;12045;60.214;24.724;2022-09-09T07:55:28;0.75;;;0.75;;
23728;SDS011;12045;60.214;24.724;2022-09-09T08:01:23;1.77;;;0.80;;
23728;SDS011;12045;60.214;24.724;2022-09-09T08:03:57;1.20;;;0.70;;
23728;SDS011;12045;60.214;24.724;2022-09-09T08:06:28;1.60;;;0.80;;
23728;SDS011;12045;60.214;24.724;2022-09-09T08:08:59;0.98;;;0.80;;
23728;SDS011;12045;60.214;24.724;2022-09-09T08:11:28;0.80;;;0.80;;
23728;SDS011;12045;60.214;24.724;2022-09-09T08:14:04;2.55;;;1.00;;
23728;SDS011;12045;60.214;24.724;2022-09-09T08:16:44;1.40;;;1.00;;
23728;SDS011;12045;60.214;24.724;2022-09-09T08:19:41;0.73;;;0.70;;
23728;SDS011;12045;60.214;24.724;2022-09-09T08:22:15;0.95;;;0.70;;
23728;SDS011;12045;60.214;24.724;2022-09-09T08:24:44;1.45;;;0.73;;
23728;SDS011;12045;60.214;24.724;2022-09-09T08:27:19;1.02;;;0.90;;
23728;SDS011;12045;60.214;24.724;2022-09-09T08:29:47;2.10;;;0.90;;
23728;SDS011;12045;60.214;24.724;2022-09-09T08:32:24;1.58;;;1.00;;
23728;SDS011;12045;60.214;24.724;2022-09-09T08:35:18;1.15;;;0.82;;
23728;SDS011;12045;60.214;24.724;2022-09-09T08:37:48;1.65;;;0.80;;
23728;SDS011;12045;60.214;24.724;2022-09-09T08:40:29;0.90;;;0.60;;
23728;SDS011;12045;60.214;24.724;2022-09-09T08:43:16;0.70;;;0.70;;
23728;SDS011;12045;60.214;24.724;2022-09-09T08:48:47;2.88;;;1.10;;
23728;SDS011;12045;60.214;24.724;2022-09-09T08:51:34;1.67;;;1.00;;
23728;SDS011;12045;60.214;24.724;2022-09-09T08:54:13;1.30;;;0.68;;
23728;SDS011;12045;60.214;24.724;2022-09-09T08:57:03;2.35;;;0.82;;
23728;SDS011;12045;60.214;24.724;2022-09-09T08:59:49;0.98;;;0.82;;
23728;SDS011;12045;60.214;24.724;2022-09-09T09:08:17;1.60;;;0.70;;
23728;SDS011;12045;60.214;24.724;2022-09-09T09:11:04;1.27;;;1.00;;
23728;SDS011;12045;60.214;24.724;2022-09-09T09:13:45;1.40;;;0.75;;
23728;SDS011;12045;60.214;24.724;2022-09-09T09:19:24;0.63;;;0.63;;
23728;SDS011;12045;60.214;24.724;2022-09-09T09:24:56;1.50;;;0.85;;
23728;SDS011;12045;60.214;24.724;2022-09-09T09:27:58;0.80;;;0.80;;
23728;SDS011;12045;60.214;24.724;2022-09-09T09:30:52;1.13;;;0.85;;
23728;SDS011;12045;60.214;24.724;2022-09-09T09:39:26;1.67;;;0.90;;
23728;SDS011;12045;60.214;24.724;2022-09-09T09:42:19;1.10;;;0.90;;
23728;SDS011;12045;60.214;24.724;2022-09-09T09:45:07;0.88;;;0.88;;
23728;SDS011;12045;60.214;24.724;2022-09-09T09:48:08;0.95;;;0.80;;
23728;SDS011;12045;60.214;24.724;2022-09-09T09:53:45;0.80;;;0.70;;
23728;SDS011;12045;60.214;24.724;2022-09-09T09:56:14;1.70;;;0.90;;
23728;SDS011;12045;60.214;24.724;2022-09-09T10:03:57;1.98;;;0.90;;
23728;SDS011;12045;60.214;24.724;2022-09-09T10:06:46;1.30;;;1.20;;
23728;SDS011;12045;60.214;24.724;2022-09-09T10:09:25;2.38;;;0.90;;
23728;SDS011;12045;60.214;24.724;2022-09-09T10:15:16;1.33;;;1.00;;
23728;SDS011;12045;60.214;24.724;2022-09-09T10:21:15;1.92;;;0.98;;
23728;SDS011;12045;60.214;24.724;2022-09-09T10:32:33;1.67;;;1.10;;
23728;SDS011;12045;60.214;24.724;2022-09-09T10:38:42;0.80;;;0.80;;
23728;SDS011;12045;60.214;24.724;2022-09-09T10:41:19;1.45;;;1.10;;
23728;SDS011;12045;60.214;24.724;2022-09-09T10:44:22;1.15;;;1.00;;
23728;SDS011;12045;60.214;24.724;2022-09-09T10:50:03;1.02;;;0.93;;
23728;SDS011;12045;60.214;24.724;2022-09-09T10:53:15;1.02;;;0.98;;
23728;SDS011;12045;60.214;24.724;2022-09-09T10:56:16;0.90;;;0.90;;
23728;SDS011;12045;60.214;24.724;2022-09-09T10:58:49;1.30;;;1.00;;
23728;SDS011;12045;60.214;24.724;2022-09-09T11:01:41;1.10;;;1.00;;
23728;SDS011;12045;60.214;24.724;2022-09-09T11:04:23;3.83;;;1.10;;
23728;SDS011;12045;60.214;24.724;2022-09-09T11:07:02;1.17;;;0.90;;
23728;SDS011;12045;60.214;24.724;2022-09-09T11:09:41;1.73;;;1.10;;
23728;SDS011;12045;60.214;24.724;2022-09-09T11:12:18;1.42;;;0.98;;
23728;SDS011;12045;60.214;24.724;2022-09-09T11:14:57;1.63;;;1.00;;
23728;SDS011;12045;60.214;24.724;2022-09-09T11:17:40;0.95;;;0.90;;
23728;SDS011;12045;60.214;24.724;2022-09-09T11:39:53;2.15;;;1.10;;
23728;SDS011;12045;60.214;24.724;2022-09-09T11:42:42;3.33;;;1.10;;
23728;SDS011;12045;60.214;24.724;2022-09-09T11:45:10;1.15;;;1.05;;
23728;SDS011;12045;60.214;24.724;2022-09-09T11:47:51;0.90;;;0.90;;
23728;SDS011;12045;60.214;24.724;2022-09-09T11:50:30;1.20;;;0.80;;
23728;SDS011;12045;60.214;24.724;2022-09-09T11:53:05;1.40;;;0.93;;
23728;SDS011;12045;60.214;24.724;2022-09-09T11:55:40;1.77;;;1.00;;
23728;SDS011;12045;60.214;24.724;2022-09-09T12:00:39;2.88;;;1.00;;
23728;SDS011;12045;60.214;24.724;2022-09-09T12:06:18;1.20;;;1.10;;
23728;SDS011;12045;60.214;24.724;2022-09-09T12:08:55;1.10;;;0.95;;
23728;SDS011;12045;60.214;24.724;2022-09-09T12:11:39;1.65;;;1.02;;
23728;SDS011;12045;60.214;24.724;2022-09-09T12:14:18;2.97;;;1.20;;
23728;SDS011;12045;60.214;24.724;2022-09-09T12:19:48;1.25;;;1.08;;
23728;SDS011;12045;60.214;24.724;2022-09-09T12:28:15;1.50;;;1.00;;
23728;SDS011;12045;60.214;24.724;2022-09-09T12:33:19;2.70;;;1.00;;
23728;SDS011;12045;60.214;24.724;2022-09-09T12:35:52;0.80;;;0.80;;
23728;SDS011;12045;60.214;24.724;2022-09-09T12:38:26;1.42;;;1.15;;
23728;SDS011;12045;60.214;24.724;2022-09-09T12:40:58;0.80;;;0.80;;
23728;SDS011;12045;60.214;24.724;2022-09-09T12:43:27;1.05;;;0.95;;
23728;SDS011;12045;60.214;24.724;2022-09-09T12:46:03;0.90;;;0.90;;
23728;SDS011;12045;60.214;24.724;2022-09-09T12:48:37;1.98;;;1.08;;
23728;SDS011;12045;60.214;24.724;2022-09-09T12:51:19;1.67;;;1.05;;
23728;SDS011;12045;60.214;24.724;2022-09-09T12:53:57;1.55;;;1.15;;
23728;SDS011;12045;60.214;24.724;2022-09-09T12:56:26;1.63;;;1.10;;
23728;SDS011;12045;60.214;24.724;2022-09-09T12:58:57;1.15;;;0.90;;
23728;SDS011;12045;60.214;24.724;2022-09-09T13:01:31;4.38;;;1.58;;
23728;SDS011;12045;60.214;24.724;2022-09-09T13:04:00;1.08;;;0.80;;
23728;SDS011;12045;60.214;24.724;2022-09-09T13:06:30;1.00;;;0.85;;
23728;SDS011;12045;60.214;24.724;2022-09-09T13:08:59;2.13;;;1.00;;
23728;SDS011;12045;60.214;24.724;2022-09-09T13:14:03;1.38;;;0.90;;
23728;SDS011;12045;60.214;24.724;2022-09-09T13:16:33;1.35;;;1.00;;
23728;SDS011;12045;60.214;24.724;2022-09-09T13:19:08;1.05;;;0.82;;
23728;SDS011;12045;60.214;24.724;2022-09-09T13:21:41;1.48;;;0.90;;
23728;SDS011;12045;60.214;24.724;2022-09-09T13:27:02;1.65;;;0.98;;
23728;SDS011;12045;60.214;24.724;2022-09-09T13:29:54;0.73;;;0.73;;
23728;SDS011;12045;60.214;24.724;2022-09-09T13:32:24;1.02;;;0.75;;
23728;SDS011;12045;60.214;24.724;2022-09-09T13:34:55;1.25;;;0.82;;
23728;SDS011;12045;60.214;24.724;2022-09-09T13:37:30;1.63;;;0.90;;
23728;SDS011;12045;60.214;24.724;2022-09-09T13:40:02;1.08;;;0.80;;
23728;SDS011;12045;60.214;24.724;2022-09-09T13:42:34;1.45;;;0.90;;
23728;SDS011;12045;60.214;24.724;2022-09-09T13:45:14;0.88;;;0.80;;
23728;SDS011;12045;60.214;24.724;2022-09-09T13:47:48;1.73;;;0.82;;
23728;SDS011;12045;60.214;24.724;2022-09-09T13:50:20;2.25;;;0.85;;
23728;SDS011;12045;60.214;24.724;2022-09-09T13:52:52;0.95;;;0.73;;
23728;SDS011;12045;60.214;24.724;2022-09-09T13:55:22;0.82;;;0.82;;
23728;SDS011;12045;60.214;24.724;2022-09-09T13:57:51;1.60;;;0.85;;
23728;SDS011;12045;60.214;24.724;2022-09-09T14:00:20;1.65;;;0.90;;
23728;SDS011;12045;60.214;24.724;2022-09-09T14:02:48;2.45;;;0.95;;
23728;SDS011;12045;60.214;24.724;2022-09-09T14:05:17;1.17;;;0.80;;
23728;SDS011;12045;60.214;24.724;2022-09-09T14:07:45;1.75;;;0.80;;
23728;SDS011;12045;60.214;24.724;2022-09-09T14:10:18;1.00;;;0.90;;
23728;SDS011;12045;60.214;24.724;2022-09-09T14:12:46;1.30;;;0.93;;
23728;SDS011;12045;60.214;24.724;2022-09-09T14:15:14;1.65;;;0.85;;
23728;SDS011;12045;60.214;24.724;2022-09-09T14:17:42;0.88;;;0.70;;
23728;SDS011;12045;60.214;24.724;2022-09-09T14:20:10;1.40;;;0.80;;
23728;SDS011;12045;60.214;24.724;2022-09-09T14:22:38;2.42;;;0.95;;
23728;SDS011;12045;60.214;24.724;2022-09-09T14:25:06;1.73;;;1.00;;
23728;SDS011;12045;60.214;24.724;2022-09-09T14:27:34;0.80;;;0.80;;
23728;SDS011;12045;60.214;24.724;2022-09-09T14:30:03;2.45;;;0.80;;
23728;SDS011;12045;60.214;24.724;2022-09-09T14:32:31;0.80;;;0.80;;
23728;SDS011;12045;60.214;24.724;2022-09-09T14:34:59;1.48;;;0.98;;
23728;SDS011;12045;60.214;24.724;2022-09-09T14:37:27;1.52;;;0.82;;
23728;SDS011;12045;60.214;24.724;2022-09-09T14:39:55;3.95;;;1.00;;
23728;SDS011;12045;60.214;24.724;2022-09-09T14:42:23;0.88;;;0.85;;
23728;SDS011;12045;60.214;24.724;2022-09-09T14:44:50;1.77;;;1.02;;
23728;SDS011;12045;60.214;24.724;2022-09-09T14:47:18;0.90;;;0.90;;
23728;SDS011;12045;60.214;24.724;2022-09-09T14:49:45;3.90;;;0.90;;
23728;SDS011;12045;60.214;24.724;2022-09-09T14:52:16;1.55;;;0.80;;
23728;SDS011;12045;60.214;24.724;2022-09-09T14:54:43;1.13;;;0.90;;
23728;SDS011;12045;60.214;24.724;2022-09-09T14:57:11;2.55;;;0.70;;
23728;SDS011;12045;60.214;24.724;2022-09-09T14:59:38;0.93;;;0.80;;
23728;SDS011;12045;60.214;24.724;2022-09-09T15:02:07;0.70;;;0.70;;
23728;SDS011;12045;60.214;24.724;2022-09-09T15:04:36;1.58;;;0.77;;
23728;SDS011;12045;60.214;24.724;2022-09-09T15:07:04;0.80;;;0.73;;
23728;SDS011;12045;60.214;24.724;2022-09-09T15:09:31;2.08;;;0.80;;
23728;SDS011;12045;60.214;24.724;2022-09-09T15:11:58;0.80;;;0.80;;
23728;SDS011;12045;60.214;24.724;2022-09-09T15:14:27;1.27;;;0.77;;
23728;SDS011;12045;60.214;24.724;2022-09-09T15:16:55;1.23;;;0.80;;
23728;SDS011;12045;60.214;24.724;2022-09-09T15:19:23;1.35;;;0.80;;
23728;SDS011;12045;60.214;24.724;2022-09-09T15:21:50;1.00;;;0.90;;
23728;SDS011;12045;60.214;24.724;2022-09-09T15:24:18;4.88;;;1.20;;
23728;SDS011;12045;60.214;24.724;2022-09-09T15:26:46;1.85;;;1.00;;
23728;SDS011;12045;60.214;24.724;2022-09-09T15:29:14;1.00;;;0.90;;
23728;SDS011;12045;60.214;24.724;2022-09-09T15:31:42;1.83;;;0.85;;
23728;SDS011;12045;60.214;24.724;2022-09-09T15:34:10;1.85;;;0.80;;
23728;SDS011;12045;60.214;24.724;2022-09-09T15:36:39;0.98;;;0.80;;
23728;SDS011;12045;60.214;24.724;2022-09-09T15:39:09;1.10;;;1.00;;
23728;SDS011;12045;60.214;24.724;2022-09-09T15:41:43;1.20;;;0.93;;
23728;SDS011;12045;60.214;24.724;2022-09-09T15:44:11;1.02;;;0.90;;
23728;SDS011;12045;60.214;24.724;2022-09-09T15:46:43;1.75;;;0.90;;
23728;SDS011;12045;60.214;24.724;2022-09-09T15:49:13;1.30;;;0.90;;
23728;SDS011;12045;60.214;24.724;2022-09-09T15:51:47;1.05;;;0.95;;
23728;SDS011;12045;60.214;24.724;2022-09-09T15:54:34;1.10;;;0.93;;
23728;SDS011;12045;60.214;24.724;2022-09-09T15:57:06;1.40;;;0.90;;
23728;SDS011;12045;60.214;24.724;2022-09-09T15:59:35;1.38;;;0.98;;
23728;SDS011;12045;60.214;24.724;2022-09-09T16:02:03;2.53;;;1.00;;
23728;SDS011;12045;60.214;24.724;2022-09-09T16:04:32;1.05;;;0.90;;
23728;SDS011;12045;60.214;24.724;2022-09-09T16:07:02;3.50;;;1.00;;
23728;SDS011;12045;60.214;24.724;2022-09-09T16:09:31;1.00;;;0.90;;
23728;SDS011;12045;60.214;24.724;2022-09-09T16:12:03;1.77;;;1.02;;
23728;SDS011;12045;60.214;24.724;2022-09-09T16:14:37;1.48;;;0.90;;
23728;SDS011;12045;60.214;24.724;2022-09-09T16:17:05;0.98;;;0.93;;
23728;SDS011;12045;60.214;24.724;2022-09-09T16:19:34;1.85;;;1.00;;
23728;SDS011;12045;60.214;24.724;2022-09-09T16:22:02;1.25;;;0.98;;
23728;SDS011;12045;60.214;24.724;2022-09-09T16:24:29;1.83;;;0.95;;
23728;SDS011;12045;60.214;24.724;2022-09-09T16:26:57;2.03;;;1.05;;
23728;SDS011;12045;60.214;24.724;2022-09-09T16:29:25;2.13;;;1.15;;
23728;SDS011;12045;60.214;24.724;2022-09-09T16:31:54;1.80;;;0.98;;
23728;SDS011;12045;60.214;24.724;2022-09-09T16:34:28;0.90;;;0.90;;
23728;SDS011;12045;60.214;24.724;2022-09-09T16:36:56;1.83;;;1.13;;
23728;SDS011;12045;60.214;24.724;2022-09-09T16:39:23;2.83;;;0.98;;
23728;SDS011;12045;60.214;24.724;2022-09-09T16:41:51;1.30;;;1.20;;
23728;SDS011;12045;60.214;24.724;2022-09-09T16:44:19;1.90;;;1.00;;
23728;SDS011;12045;60.214;24.724;2022-09-09T16:46:48;2.45;;;1.13;;
23728;SDS011;12045;60.214;24.724;2022-09-09T16:49:23;1.10;;;1.00;;
23728;SDS011;12045;60.214;24.724;2022-09-09T16:51:51;1.52;;;1.10;;
23728;SDS011;12045;60.214;24.724;2022-09-09T16:54:20;6.38;;;1.17;;
23728;SDS011;12045;60.214;24.724;2022-09-09T16:56:48;1.27;;;1.10;;
23728;SDS011;12045;60.214;24.724;2022-09-09T16:59:17;1.45;;;1.10;;
23728;SDS011;12045;60.214;24.724;2022-09-09T17:01:47;1.80;;;1.13;;
23728;SDS011;12045;60.214;24.724;2022-09-09T17:04:18;1.40;;;1.30;;
23728;SDS011;12045;60.214;24.724;2022-09-09T17:06:53;2.03;;;1.40;;
23728;SDS011;12045;60.214;24.724;2022-09-09T17:09:22;1.52;;;1.20;;
23728;SDS011;12045;60.214;24.724;2022-09-09T17:11:50;1.95;;;1.13;;
23728;SDS011;12045;60.214;24.724;2022-09-09T17:14:19;2.72;;;1.25;;
23728;SDS011;12045;60.214;24.724;2022-09-09T17:16:49;2.40;;;1.45;;
23728;SDS011;12045;60.214;24.724;2022-09-09T17:19:16;2.38;;;1.38;;
23728;SDS011;12045;60.214;24.724;2022-09-09T17:21:44;1.95;;;1.20;;
23728;SDS011;12045;60.214;24.724;2022-09-09T17:24:34;1.20;;;1.10;;
23728;SDS011;12045;60.214;24.724;2022-09-09T17:27:02;2.25;;;1.30;;
23728;SDS011;12045;60.214;24.724;2022-09-09T17:29:30;1.73;;;1.10;;
23728;SDS011;12045;60.214;24.724;2022-09-09T17:31:58;1.90;;;1.20;;
23728;SDS011;12045;60.214;24.724;2022-09-09T17:34:25;2.22;;;1.42;;
23728;SDS011;12045;60.214;24.724;2022-09-09T17:36:53;1.60;;;1.20;;
23728;SDS011;12045;60.214;24.724;2022-09-09T17:39:23;2.08;;;1.20;;
23728;SDS011;12045;60.214;24.724;2022-09-09T17:41:51;3.83;;;1.30;;
23728;SDS011;12045;60.214;24.724;2022-09-09T17:44:19;2.92;;;1.30;;
23728;SDS011;12045;60.214;24.724;2022-09-09T17:46:47;3.33;;;1.50;;
23728;SDS011;12045;60.214;24.724;2022-09-09T17:49:16;3.80;;;1.50;;
23728;SDS011;12045;60.214;24.724;2022-09-09T17:51:46;3.15;;;1.50;;
23728;SDS011;12045;60.214;24.724;2022-09-09T17:54:16;3.95;;;1.52;;
23728;SDS011;12045;60.214;24.724;2022-09-09T17:56:45;2.78;;;1.60;;
23728;SDS011;12045;60.214;24.724;2022-09-09T17:59:15;1.60;;;1.50;;
23728;SDS011;12045;60.214;24.724;2022-09-09T18:01:44;2.55;;;1.48;;
23728;SDS011;12045;60.214;24.724;2022-09-09T18:04:14;3.60;;;1.40;;